Time;durP1;ratioP1;P1;durP2;ratioP2;P2;SDS_P1;SDS_P2;PMS_P1;PMS_P2;Temp;Humidity;BMP_temperature;BMP_pressure;BME280_temperature;BME280_humidity;BME280_pressure;Samples;Min_cycle;Max_cycle;Signal;HPM_P1;HPM_P2
2020/12/31 00:00:15;;;;;;;6.47;3.50;;;2.40;70.90;;;;;;5003423;28;20038;-65
2020/12/31 00:02:41;;;;;;;5.07;3.28;;;2.30;71.10;;;;;;5002059;28;20049;-65
2020/12/31 00:05:06;;;;;;;6.25;3.78;;;2.30;71.10;;;;;;5002660;28;20102;-66
2020/12/31 00:07:32;;;;;;;6.50;3.33;;;2.20;71.10;;;;;;5004879;28;20050;-65
2020/12/31 00:09:57;;;;;;;6.03;3.70;;;2.30;71.10;;;;;;5005326;28;20048;-65
2020/12/31 00:12:23;;;;;;;5.80;3.88;;;2.30;71.00;;;;;;5003505;28;20069;-66
2020/12/31 00:15:41;;;;;;;7.20;3.78;;;2.20;71.20;;;;;;5080915;27;20131;-62
2020/12/31 00:18:06;;;;;;;5.90;3.58;;;2.20;71.60;;;;;;5078667;28;20072;-62
2020/12/31 00:20:32;;;;;;;5.97;3.70;;;2.20;71.40;;;;;;5078262;27;20036;-62
2020/12/31 00:22:58;;;;;;;5.68;3.70;;;2.10;71.30;;;;;;5078158;27;20036;-62
2020/12/31 00:25:23;;;;;;;6.32;3.70;;;2.00;71.40;;;;;;5079075;27;20037;-61
2020/12/31 00:27:49;;;;;;;6.03;3.78;;;2.10;71.30;;;;;;5080231;27;20041;-62
2020/12/31 00:30:16;;;;;;;5.50;3.63;;;2.00;71.30;;;;;;5077049;28;20047;-64
2020/12/31 00:32:43;;;;;;;5.50;3.70;;;2.00;71.20;;;;;;5077198;28;20046;-64
2020/12/31 00:35:09;;;;;;;6.78;3.45;;;1.90;71.60;;;;;;5077032;28;20395;-64
2020/12/31 00:37:34;;;;;;;5.95;3.67;;;1.90;71.80;;;;;;5077954;28;20032;-66
2020/12/31 00:40:00;;;;;;;7.15;3.60;;;1.90;71.90;;;;;;5080032;28;20032;-64
2020/12/31 00:42:26;;;;;;;5.30;3.50;;;1.90;71.80;;;;;;5077867;28;20385;-64
2020/12/31 00:44:52;;;;;;;8.07;3.72;;;1.90;71.70;;;;;;5078191;28;20033;-64
2020/12/31 00:47:17;;;;;;;5.85;3.47;;;1.90;71.60;;;;;;5077732;28;20096;-64
2020/12/31 00:49:43;;;;;;;6.75;3.55;;;1.90;71.70;;;;;;5077794;28;20293;-64
2020/12/31 00:52:08;;;;;;;6.63;3.40;;;1.90;71.10;;;;;;5081363;28;20097;-64
2020/12/31 00:54:34;;;;;;;4.88;3.22;;;1.90;71.20;;;;;;5077517;28;20086;-64
2020/12/31 00:56:59;;;;;;;6.38;3.55;;;1.80;71.30;;;;;;5060206;28;20044;-64
2020/12/31 00:59:25;;;;;;;6.20;3.38;;;1.70;71.30;;;;;;5077636;28;20039;-64
2020/12/31 01:01:50;;;;;;;5.03;3.40;;;1.60;71.50;;;;;;5077401;28;20043;-64
2020/12/31 01:04:16;;;;;;;5.63;3.33;;;1.50;71.80;;;;;;5079433;28;20033;-64
2020/12/31 01:06:42;;;;;;;6.57;3.22;;;1.60;71.70;;;;;;5075982;28;20044;-64
2020/12/31 01:09:08;;;;;;;6.05;3.78;;;1.60;71.90;;;;;;5077499;27;20049;-64
2020/12/31 01:11:37;;;;;;;4.63;3.35;;;1.50;72.00;;;;;;5077222;28;20374;-63
2020/12/31 01:14:03;;;;;;;6.07;3.70;;;1.50;72.20;;;;;;5075885;28;20048;-64
2020/12/31 01:16:29;;;;;;;6.57;3.60;;;1.50;72.40;;;;;;5077621;28;20052;-64
2020/12/31 01:18:54;;;;;;;5.18;3.47;;;1.50;72.40;;;;;;5079177;28;20327;-64
2020/12/31 01:21:20;;;;;;;4.93;3.20;;;1.50;72.80;;;;;;5077473;28;20047;-64
2020/12/31 01:23:45;;;;;;;5.80;3.28;;;1.50;72.90;;;;;;5077009;28;20096;-64
2020/12/31 01:26:11;;;;;;;6.07;3.42;;;1.50;73.20;;;;;;5068751;28;20033;-64
2020/12/31 01:28:37;;;;;;;5.53;3.25;;;1.50;73.50;;;;;;5046167;28;20085;-65
2020/12/31 01:31:07;;;;;;;5.18;3.05;;;1.50;73.60;;;;;;5067104;28;20308;-64
2020/12/31 01:33:34;;;;;;;5.57;3.55;;;1.60;73.90;;;;;;5063951;28;20037;-65
2020/12/31 01:35:59;;;;;;;4.45;3.17;;;1.50;74.40;;;;;;5063696;28;20037;-64
2020/12/31 01:38:25;;;;;;;6.35;3.05;;;1.50;74.30;;;;;;5063399;28;20033;-64
2020/12/31 01:40:52;;;;;;;5.78;3.38;;;1.50;74.20;;;;;;5063463;28;20036;-64
2020/12/31 01:43:18;;;;;;;7.03;3.88;;;1.50;73.90;;;;;;5066474;28;20036;-64
2020/12/31 01:45:43;;;;;;;6.30;3.72;;;1.60;73.80;;;;;;5063605;28;20059;-64
2020/12/31 01:48:09;;;;;;;5.80;3.38;;;1.60;73.60;;;;;;5062761;28;20223;-64
2020/12/31 01:50:34;;;;;;;5.28;3.45;;;1.50;73.50;;;;;;5063273;28;20056;-64
2020/12/31 01:53:00;;;;;;;5.78;3.55;;;1.50;73.50;;;;;;5063085;28;20079;-64
2020/12/31 01:55:25;;;;;;;5.35;3.50;;;1.50;73.20;;;;;;5064014;28;20044;-64
2020/12/31 01:57:52;;;;;;;4.75;3.08;;;1.40;73.40;;;;;;5065006;28;20093;-64
2020/12/31 02:00:17;;;;;;;5.50;3.50;;;1.40;73.20;;;;;;5062205;28;20040;-65
2020/12/31 02:02:43;;;;;;;5.97;3.50;;;1.40;73.40;;;;;;5062899;28;20033;-65
2020/12/31 02:05:08;;;;;;;6.13;3.55;;;1.30;73.40;;;;;;5062945;28;20098;-64
2020/12/31 02:07:34;;;;;;;5.97;3.70;;;1.30;73.20;;;;;;5063330;28;20324;-64
2020/12/31 02:09:59;;;;;;;6.28;3.70;;;1.20;73.00;;;;;;5063806;28;20275;-64
2020/12/31 02:12:25;;;;;;;7.68;3.58;;;1.30;73.90;;;;;;5061675;28;20037;-64
2020/12/31 02:14:51;;;;;;;6.15;3.65;;;1.40;74.00;;;;;;5061721;28;20053;-64
2020/12/31 02:17:17;;;;;;;6.13;3.53;;;1.40;73.90;;;;;;5062661;28;20033;-64
2020/12/31 02:19:43;;;;;;;6.88;3.95;;;1.40;73.20;;;;;;5062664;28;20044;-64
2020/12/31 02:22:10;;;;;;;6.47;3.90;;;1.20;73.00;;;;;;5048632;28;20056;-64
2020/12/31 02:24:36;;;;;;;5.60;3.72;;;1.30;72.60;;;;;;5062966;28;20033;-62
2020/12/31 02:27:01;;;;;;;6.57;3.97;;;1.20;72.90;;;;;;5062685;28;20041;-62
2020/12/31 02:29:27;;;;;;;5.07;3.60;;;1.20;72.90;;;;;;5062683;28;20032;-62
2020/12/31 02:31:52;;;;;;;6.68;3.83;;;1.20;72.80;;;;;;5061277;28;20040;-61
2020/12/31 02:34:18;;;;;;;7.13;3.42;;;1.10;72.70;;;;;;5065963;28;20092;-62
2020/12/31 02:36:44;;;;;;;5.95;3.60;;;1.10;72.60;;;;;;5061216;28;20029;-62
2020/12/31 02:39:11;;;;;;;5.72;3.67;;;1.10;72.50;;;;;;5061748;28;20060;-62
2020/12/31 02:41:36;;;;;;;5.78;4.07;;;1.10;72.30;;;;;;5062670;28;20343;-62
2020/12/31 02:44:02;;;;;;;6.47;3.67;;;1.00;72.80;;;;;;5061120;28;20037;-62
2020/12/31 02:46:28;;;;;;;7.97;3.40;;;1.00;72.80;;;;;;5062890;28;20255;-62
2020/12/31 02:48:53;;;;;;;5.68;3.63;;;1.00;72.80;;;;;;5046264;28;20025;-62
2020/12/31 02:51:19;;;;;;;7.00;4.05;;;0.90;72.50;;;;;;5062140;28;20056;-62
2020/12/31 02:53:45;;;;;;;6.50;3.92;;;1.00;72.70;;;;;;5061006;28;20037;-62
2020/12/31 02:56:18;;;;;;;8.15;4.10;;;0.90;72.90;;;;;;5060778;28;20033;-62
2020/12/31 02:58:44;;;;;;;6.38;3.83;;;0.90;73.10;;;;;;5044098;28;20028;-62
2020/12/31 03:01:10;;;;;;;5.40;3.60;;;0.90;72.80;;;;;;5065253;28;20336;-62
2020/12/31 03:03:36;;;;;;;6.20;3.80;;;0.90;72.50;;;;;;5060926;28;20045;-62
2020/12/31 03:06:02;;;;;;;6.03;3.78;;;0.90;72.80;;;;;;5060691;28;20047;-61
2020/12/31 03:08:27;;;;;;;5.47;3.72;;;0.90;73.20;;;;;;5060576;28;20167;-62
2020/12/31 03:10:54;;;;;;;5.30;3.85;;;1.10;73.10;;;;;;5061866;28;20101;-62
2020/12/31 03:13:23;;;;;;;6.78;3.78;;;1.00;72.90;;;;;;5065000;28;20035;-62
2020/12/31 03:15:49;;;;;;;7.32;3.97;;;1.00;73.50;;;;;;5061130;28;20051;-61
2020/12/31 03:18:15;;;;;;;5.68;4.20;;;1.10;73.20;;;;;;5061737;28;20037;-62
2020/12/31 03:20:43;;;;;;;6.30;3.90;;;1.10;72.60;;;;;;5061778;28;20241;-62
2020/12/31 03:23:10;;;;;;;5.78;4.03;;;1.10;72.30;;;;;;5061658;28;20029;-62
2020/12/31 03:25:36;;;;;;;5.10;3.60;;;1.00;73.30;;;;;;5060626;28;20060;-62
2020/12/31 03:28:01;;;;;;;7.05;3.88;;;1.10;72.70;;;;;;5063977;28;20458;-62
2020/12/31 03:30:27;;;;;;;6.03;3.90;;;1.20;72.60;;;;;;5060032;28;20041;-62
2020/12/31 03:32:52;;;;;;;6.65;4.10;;;1.20;72.50;;;;;;5061392;28;20094;-62
2020/12/31 03:35:18;;;;;;;6.60;4.22;;;1.10;72.20;;;;;;5061308;28;20052;-61
2020/12/31 03:37:43;;;;;;;6.43;4.07;;;1.10;72.30;;;;;;5061160;28;20281;-62
2020/12/31 03:40:09;;;;;;;6.43;3.85;;;1.10;72.30;;;;;;5064541;28;20074;-62
2020/12/31 03:42:34;;;;;;;6.45;3.85;;;1.00;72.10;;;;;;5061625;28;20096;-62
2020/12/31 03:45:00;;;;;;;4.88;3.85;;;1.00;71.80;;;;;;5061302;28;20332;-62
2020/12/31 03:47:25;;;;;;;7.10;3.92;;;0.90;72.20;;;;;;5061064;28;20059;-62
2020/12/31 03:49:51;;;;;;;6.47;3.58;;;0.90;72.50;;;;;;5060497;28;20099;-62
2020/12/31 03:52:16;;;;;;;5.13;3.65;;;0.90;72.20;;;;;;5064419;28;20036;-61
2020/12/31 03:54:42;;;;;;;5.85;3.85;;;0.90;72.40;;;;;;5060959;28;20316;-62
2020/12/31 03:57:07;;;;;;;5.50;3.70;;;0.90;72.30;;;;;;5059541;28;20097;-62
2020/12/31 03:59:33;;;;;;;5.57;3.45;;;0.80;72.20;;;;;;5060678;28;20040;-62
2020/12/31 04:01:58;;;;;;;5.25;3.50;;;0.80;72.30;;;;;;5059616;28;20033;-62
2020/12/31 04:04:24;;;;;;;5.85;3.88;;;0.90;72.30;;;;;;5064224;28;20205;-62
2020/12/31 04:06:49;;;;;;;6.40;3.95;;;0.90;72.20;;;;;;5061034;28;20336;-62
2020/12/31 04:09:15;;;;;;;5.85;3.67;;;0.80;72.10;;;;;;5060973;28;20037;-62
2020/12/31 04:11:40;;;;;;;6.38;3.90;;;0.70;71.90;;;;;;5059629;28;20197;-62
2020/12/31 04:14:06;;;;;;;5.70;3.80;;;0.70;72.20;;;;;;5059310;28;20112;-62
2020/12/31 04:16:32;;;;;;;5.90;3.72;;;0.70;72.50;;;;;;5062772;28;20048;-62
2020/12/31 04:18:57;;;;;;;5.80;3.90;;;0.70;72.10;;;;;;5060919;28;20096;-62
2020/12/31 04:21:23;;;;;;;5.93;3.85;;;0.70;72.20;;;;;;5059253;28;20044;-62
2020/12/31 04:23:51;;;;;;;6.78;3.70;;;0.70;72.20;;;;;;5060751;28;20060;-62
2020/12/31 04:26:17;;;;;;;7.13;3.95;;;0.70;72.20;;;;;;5060357;28;20040;-62
2020/12/31 04:28:42;;;;;;;5.45;3.53;;;0.70;72.20;;;;;;5058914;28;20029;-62
2020/12/31 04:31:08;;;;;;;5.75;3.75;;;0.60;72.10;;;;;;5064023;28;20025;-62
2020/12/31 04:33:33;;;;;;;5.63;4.05;;;0.60;72.00;;;;;;5060850;28;20324;-62
2020/12/31 04:35:59;;;;;;;6.18;3.80;;;0.50;71.90;;;;;;5059353;28;20033;-62
2020/12/31 04:38:24;;;;;;;5.68;3.78;;;0.50;71.90;;;;;;5060447;28;20222;-62
2020/12/31 04:40:50;;;;;;;6.20;3.80;;;0.60;72.70;;;;;;5060485;28;20231;-62
2020/12/31 04:43:15;;;;;;;7.47;4.28;;;0.60;72.20;;;;;;5064145;28;20078;-62
2020/12/31 04:45:42;;;;;;;6.07;3.55;;;0.60;72.00;;;;;;5060830;28;20037;-62
2020/12/31 04:48:30;;;;;;;6.00;3.80;;;0.60;71.90;;;;;;5059055;28;20340;-62
2020/12/31 04:50:57;;;;;;;6.07;3.67;;;0.40;71.70;;;;;;5059146;28;20037;-65
2020/12/31 04:53:22;;;;;;;6.80;3.95;;;0.40;72.10;;;;;;5059247;28;20324;-64
2020/12/31 04:55:48;;;;;;;7.80;3.90;;;0.50;71.50;;;;;;5059677;28;20104;-64
2020/12/31 04:58:14;;;;;;;5.20;3.78;;;0.50;71.60;;;;;;5063693;28;20056;-65
2020/12/31 05:00:40;;;;;;;6.45;3.95;;;0.60;72.50;;;;;;5060063;28;20037;-65
2020/12/31 05:03:06;;;;;;;5.72;3.90;;;0.60;71.20;;;;;;5062738;28;20047;-64
2020/12/31 05:05:32;;;;;;;5.70;3.97;;;0.60;71.30;;;;;;5063940;28;20037;-64
2020/12/31 05:07:59;;;;;;;5.95;3.83;;;0.50;71.50;;;;;;5062840;28;20039;-65
2020/12/31 05:10:24;;;;;;;5.50;3.58;;;0.50;71.50;;;;;;5049342;28;20079;-64
2020/12/31 05:13:00;;;;;;;7.10;3.38;;;0.40;71.90;;;;;;5064145;28;20037;-64
2020/12/31 05:15:39;;;;;;;4.88;3.28;;;0.40;71.90;;;;;;5062505;28;20114;-64
2020/12/31 05:18:21;;;;;;;5.90;3.63;;;0.30;71.80;;;;;;5062691;28;20041;-64
2020/12/31 05:20:48;;;;;;;5.25;3.88;;;0.40;71.70;;;;;;5046061;28;20100;-65
2020/12/31 05:23:15;;;;;;;6.90;4.05;;;0.40;71.90;;;;;;5062642;28;20340;-65
2020/12/31 05:25:40;;;;;;;5.55;3.70;;;0.40;71.80;;;;;;5062556;28;20078;-64
2020/12/31 05:28:27;;;;;;;5.30;3.40;;;0.40;72.30;;;;;;5066805;28;20041;-65
2020/12/31 05:30:57;;;;;;;6.80;3.80;;;0.40;72.30;;;;;;5062748;28;20383;-64
2020/12/31 05:33:23;;;;;;;5.57;3.57;;;0.40;72.50;;;;;;5062703;28;20037;-65
2020/12/31 05:35:49;;;;;;;4.68;3.22;;;0.40;72.60;;;;;;5062352;28;20324;-64
2020/12/31 05:38:19;;;;;;;4.20;3.08;;;0.40;72.90;;;;;;5063610;28;20040;-65
2020/12/31 05:40:59;;;;;;;5.47;3.45;;;0.50;73.00;;;;;;5063521;28;20036;-64
2020/12/31 05:43:24;;;;;;;4.55;3.20;;;0.50;72.90;;;;;;5048790;28;20017;-65
2020/12/31 05:46:03;;;;;;;4.35;2.85;;;0.50;73.20;;;;;;5062521;28;20300;-65
2020/12/31 05:48:28;;;;;;;4.18;2.65;;;0.40;73.20;;;;;;5062501;28;20047;-64
2020/12/31 05:50:54;;;;;;;5.05;2.80;;;0.50;72.50;;;;;;5063326;28;20041;-64
2020/12/31 05:53:23;;;;;;;5.80;2.70;;;0.50;72.40;;;;;;5028795;28;20036;-64
2020/12/31 05:55:56;;;;;;;4.38;2.50;;;0.50;72.50;;;;;;5061946;28;20029;-65
2020/12/31 05:58:23;;;;;;;6.60;2.60;;;0.50;72.00;;;;;;5065758;28;20343;-65
2020/12/31 06:01:00;;;;;;;5.75;2.33;;;0.50;72.30;;;;;;5062085;28;20041;-64
2020/12/31 06:03:34;;;;;;;3.70;2.05;;;0.60;72.30;;;;;;5062265;28;20037;-65
2020/12/31 06:06:04;;;;;;;4.15;2.58;;;0.60;72.10;;;;;;5061942;28;20056;-65
2020/12/31 06:08:31;;;;;;;4.93;2.45;;;0.60;72.10;;;;;;5061654;28;20037;-65
2020/12/31 06:11:00;;;;;;;5.70;2.45;;;0.50;71.80;;;;;;5062671;28;20078;-64
2020/12/31 06:13:26;;;;;;;3.00;2.15;;;0.50;72.00;;;;;;5064739;28;20055;-64
2020/12/31 06:15:55;;;;;;;4.30;2.30;;;0.60;72.10;;;;;;5061883;28;20087;-64
2020/12/31 06:18:20;;;;;;;3.72;2.42;;;0.60;71.80;;;;;;5061980;28;20213;-64
2020/12/31 06:20:47;;;;;;;3.78;2.10;;;0.50;72.00;;;;;;5061926;28;20037;-65
2020/12/31 06:23:13;;;;;;;4.15;2.10;;;0.40;72.10;;;;;;5061028;28;20032;-66
2020/12/31 06:25:43;;;;;;;3.17;2.03;;;0.50;72.00;;;;;;5062230;28;20033;-67
2020/12/31 06:28:13;;;;;;;5.95;2.05;;;0.50;71.80;;;;;;5064580;28;20198;-67
2020/12/31 06:30:40;;;;;;;5.07;2.20;;;0.50;71.70;;;;;;5061333;28;20116;-67
2020/12/31 06:33:16;;;;;;;3.53;2.30;;;0.60;71.80;;;;;;5061243;28;20037;-66
2020/12/31 06:35:42;;;;;;;4.25;2.13;;;0.50;71.60;;;;;;5061098;28;20064;-67
2020/12/31 06:38:09;;;;;;;3.78;2.22;;;0.60;71.40;;;;;;5061776;28;20033;-66
2020/12/31 06:40:35;;;;;;;3.20;1.98;;;0.50;71.10;;;;;;5061228;28;20057;-68
2020/12/31 06:43:09;;;;;;;4.25;2.08;;;0.40;71.20;;;;;;5064261;28;20033;-66
2020/12/31 06:45:42;;;;;;;3.30;1.95;;;0.40;71.10;;;;;;5061006;28;20087;-67
2020/12/31 06:48:26;;;;;;;3.17;1.88;;;0.40;71.50;;;;;;5061307;28;20041;-66
2020/12/31 06:50:59;;;;;;;5.05;2.00;;;0.20;71.50;;;;;;5060570;28;20033;-66
2020/12/31 06:53:39;;;;;;;4.40;1.90;;;0.20;71.40;;;;;;5060548;28;20283;-66
2020/12/31 06:56:08;;;;;;;4.25;1.95;;;0.20;71.50;;;;;;5060595;28;20052;-67
2020/12/31 06:58:33;;;;;;;4.05;1.85;;;0.20;71.60;;;;;;5063165;28;20220;-68
2020/12/31 07:00:59;;;;;;;6.32;2.10;;;0.30;71.70;;;;;;5062235;28;20080;-66
2020/12/31 07:03:40;;;;;;;3.70;2.60;;;0.30;71.20;;;;;;5060668;28;20192;-66
2020/12/31 07:06:27;;;;;;;5.53;2.60;;;0.20;71.00;;;;;;5061389;28;20048;-66
2020/12/31 07:09:04;;;;;;;4.03;2.35;;;0.30;70.90;;;;;;5060415;28;20326;-66
2020/12/31 07:11:34;;;;;;;7.63;2.78;;;0.20;71.10;;;;;;5061617;28;20220;-66
2020/12/31 07:14:20;;;;;;;5.37;2.40;;;0.20;71.20;;;;;;5060020;28;20206;-66
2020/12/31 07:16:55;;;;;;;4.30;2.20;;;0.10;71.00;;;;;;5060207;28;20071;-65
2020/12/31 07:19:41;;;;;;;4.10;2.35;;;0.10;71.20;;;;;;5064937;28;20025;-65
2020/12/31 07:22:10;;;;;;;9.23;2.10;;;0.00;71.30;;;;;;5061231;28;20104;-65
2020/12/31 07:24:59;;;;;;;12.75;2.03;;;0.10;71.50;;;;;;5060921;28;20083;-67
2020/12/31 07:27:27;;;;;;;8.85;2.45;;;0.10;71.50;;;;;;5060363;28;20255;-66
2020/12/31 07:30:00;;;;;;;5.22;2.10;;;0.10;71.20;;;;;;5060162;28;20037;-66
2020/12/31 07:32:52;;;;;;;4.65;2.20;;;0.10;71.00;;;;;;5059790;28;20031;-66
2020/12/31 07:35:33;;;;;;;4.53;2.35;;;0.10;70.90;;;;;;5059947;28;20037;-66
2020/12/31 07:38:00;;;;;;;4.03;2.40;;;0.10;71.30;;;;;;5059733;28;20217;-66
2020/12/31 07:40:38;;;;;;;4.35;2.20;;;0.10;71.20;;;;;;5064309;28;20033;-66
2020/12/31 07:43:05;;;;;;;8.57;2.17;;;0.10;71.40;;;;;;5062037;28;20328;-66
2020/12/31 07:45:31;;;;;;;9.25;2.50;;;0.00;71.60;;;;;;5060060;28;20078;-66
2020/12/31 07:47:57;;;;;;;8.73;2.10;;;0.00;72.20;;;;;;5059924;28;20044;-66
2020/12/31 07:50:22;;;;;;;8.77;2.67;;;0.00;72.30;;;;;;5059793;28;20228;-65
2020/12/31 07:52:48;;;;;;;4.63;2.03;;;0.10;71.80;;;;;;5060734;28;20060;-68
2020/12/31 07:55:14;;;;;;;8.05;1.88;;;0.10;72.30;;;;;;5063146;28;20029;-66
2020/12/31 07:57:39;;;;;;;2.72;1.75;;;0.40;71.90;;;;;;5059836;28;20037;-67
2020/12/31 08:00:16;;;;;;;4.82;2.00;;;0.50;71.70;;;;;;5059474;28;20091;-66
2020/12/31 08:02:49;;;;;;;4.55;2.20;;;0.40;71.60;;;;;;5059595;28;20041;-65
2020/12/31 08:05:16;;;;;;;3.50;1.70;;;0.40;71.70;;;;;;5060059;28;20282;-66
2020/12/31 08:07:41;;;;;;;5.05;1.92;;;0.40;72.30;;;;;;5059660;28;20190;-66
2020/12/31 08:10:08;;;;;;;3.75;2.00;;;0.50;72.30;;;;;;5062902;28;20051;-66
2020/12/31 08:12:35;;;;;;;3.50;2.15;;;0.90;71.50;;;;;;5060675;28;20071;-65
2020/12/31 08:15:00;;;;;;;4.55;2.10;;;1.30;70.20;;;;;;5059289;28;20118;-65
2020/12/31 08:17:26;;;;;;;3.33;2.13;;;1.60;69.30;;;;;;5060420;28;20240;-66
2020/12/31 08:19:51;;;;;;;3.95;2.20;;;1.60;69.10;;;;;;5060419;28;20036;-65
2020/12/31 08:22:32;;;;;;;4.35;2.30;;;1.60;69.20;;;;;;5063025;28;20052;-65
2020/12/31 08:25:03;;;;;;;4.00;2.42;;;1.80;69.00;;;;;;5060471;28;20120;-65
2020/12/31 08:27:29;;;;;;;3.95;2.10;;;1.90;68.70;;;;;;5059753;28;20087;-65
2020/12/31 08:29:55;;;;;;;2.83;1.77;;;2.00;68.20;;;;;;5042627;28;20033;-65
2020/12/31 08:32:24;;;;;;;2.88;1.88;;;2.10;67.80;;;;;;5059271;28;20033;-65
2020/12/31 08:34:54;;;;;;;2.90;1.60;;;2.10;68.20;;;;;;5059124;28;20356;-65
2020/12/31 08:37:21;;;;;;;3.65;2.00;;;2.30;68.00;;;;;;5049668;28;20312;-65
2020/12/31 08:39:54;;;;;;;4.53;1.63;;;2.30;68.00;;;;;;5063652;28;20180;-65
2020/12/31 08:42:21;;;;;;;3.15;1.67;;;2.30;67.60;;;;;;5063117;28;20350;-65
2020/12/31 08:44:52;;;;;;;2.88;1.67;;;2.40;68.30;;;;;;5063981;28;20037;-65
2020/12/31 08:47:22;;;;;;;2.45;1.58;;;2.60;67.40;;;;;;5062949;28;20251;-65
2020/12/31 08:49:52;;;;;;;2.20;1.40;;;2.60;67.00;;;;;;5064111;28;20056;-65
2020/12/31 08:52:18;;;;;;;3.20;1.50;;;2.60;67.00;;;;;;5049611;28;20016;-64
2020/12/31 08:54:44;;;;;;;2.20;1.25;;;2.50;67.30;;;;;;5064280;28;20201;-64
2020/12/31 08:57:16;;;;;;;3.05;1.50;;;2.50;68.40;;;;;;5063914;28;20037;-64
2020/12/31 08:59:42;;;;;;;3.67;1.70;;;2.50;68.90;;;;;;5063148;28;20256;-65
2020/12/31 09:02:11;;;;;;;5.97;3.17;;;2.60;68.20;;;;;;5062857;28;20032;-65
2020/12/31 09:04:36;;;;;;;3.58;2.10;;;2.70;67.40;;;;;;5063159;28;20040;-66
2020/12/31 09:07:09;;;;;;;4.10;2.40;;;2.90;66.30;;;;;;5066151;28;20051;-66
2020/12/31 09:09:34;;;;;;;4.03;2.30;;;2.90;66.80;;;;;;5062594;28;20048;-66
2020/12/31 09:12:04;;;;;;;5.30;2.33;;;2.80;67.50;;;;;;5063813;28;20340;-65
2020/12/31 09:14:31;;;;;;;3.63;2.05;;;2.80;67.80;;;;;;5045840;28;20060;-65
2020/12/31 09:16:57;;;;;;;5.90;3.20;;;2.90;67.90;;;;;;5062677;28;20108;-65
2020/12/31 09:19:23;;;;;;;4.72;2.90;;;3.40;66.10;;;;;;5049194;28;20033;-66
2020/12/31 09:21:48;;;;;;;5.15;3.15;;;3.80;65.50;;;;;;5063835;28;20037;-68
2020/12/31 09:24:18;;;;;;;5.50;3.13;;;4.20;63.30;;;;;;5062836;28;20036;-68
2020/12/31 09:26:51;;;;;;;4.47;3.00;;;4.00;63.20;;;;;;5062778;28;20057;-67
2020/12/31 09:29:18;;;;;;;4.50;3.00;;;4.20;63.10;;;;;;5062525;28;20052;-66
2020/12/31 09:31:43;;;;;;;5.78;2.97;;;4.10;63.10;;;;;;5062636;28;20037;-65
2020/12/31 09:34:09;;;;;;;5.93;3.08;;;4.10;63.60;;;;;;5066501;28;20136;-65
2020/12/31 09:36:34;;;;;;;6.63;3.28;;;4.30;61.30;;;;;;5061978;28;20037;-65
2020/12/31 09:39:00;;;;;;;5.43;3.25;;;4.40;61.50;;;;;;5062219;28;20029;-65
2020/12/31 09:41:25;;;;;;;5.10;3.28;;;4.80;60.40;;;;;;5062399;28;20044;-64
2020/12/31 09:43:51;;;;;;;5.03;3.30;;;5.10;59.40;;;;;;5062390;28;20031;-65
2020/12/31 09:46:18;;;;;;;5.57;3.35;;;5.40;57.70;;;;;;5048842;28;20033;-64
2020/12/31 09:48:44;;;;;;;4.63;3.17;;;6.00;56.30;;;;;;5063291;28;20041;-63
2020/12/31 09:51:09;;;;;;;4.90;3.40;;;6.40;55.30;;;;;;5045657;28;20216;-65
2020/12/31 09:53:35;;;;;;;4.63;3.10;;;6.40;54.30;;;;;;5062464;28;20033;-64
2020/12/31 09:56:01;;;;;;;5.22;3.47;;;6.50;52.10;;;;;;5062688;28;20025;-64
2020/12/31 09:58:26;;;;;;;5.15;3.42;;;6.80;53.40;;;;;;5066574;28;20205;-64
2020/12/31 10:00:52;;;;;;;6.80;4.07;;;6.90;50.70;;;;;;5062143;28;20139;-65
2020/12/31 10:03:17;;;;;;;6.80;4.28;;;7.30;51.70;;;;;;5062186;28;20037;-64
2020/12/31 10:05:46;;;;;;;6.22;3.60;;;7.60;49.80;;;;;;5062586;28;20059;-64
2020/12/31 10:08:12;;;;;;;6.10;3.33;;;8.10;50.00;;;;;;5061683;28;20061;-66
2020/12/31 10:10:37;;;;;;;6.00;3.58;;;8.60;47.90;;;;;;5061566;28;20257;-66
2020/12/31 10:13:03;;;;;;;5.22;3.25;;;8.90;48.40;;;;;;5065966;28;20300;-63
2020/12/31 10:15:28;;;;;;;4.93;3.40;;;8.80;47.80;;;;;;5041058;28;20091;-64
2020/12/31 10:17:54;;;;;;;5.22;2.92;;;8.20;47.00;;;;;;5044520;28;20033;-64
2020/12/31 10:20:20;;;;;;;4.22;2.95;;;7.90;47.30;;;;;;5061323;28;20033;-64
2020/12/31 10:22:45;;;;;;;4.13;2.92;;;7.60;48.90;;;;;;5061374;28;20033;-63
2020/12/31 10:25:11;;;;;;;4.70;2.92;;;7.20;49.00;;;;;;5065978;28;20092;-64
2020/12/31 10:27:36;;;;;;;4.60;2.97;;;7.20;50.50;;;;;;5061469;28;20037;-63
2020/12/31 10:30:03;;;;;;;5.32;2.45;;;6.90;48.60;;;;;;5062423;28;20041;-62
2020/12/31 10:32:29;;;;;;;4.43;2.80;;;6.80;48.20;;;;;;5044746;28;20029;-62
2020/12/31 10:34:54;;;;;;;5.07;2.50;;;6.40;49.20;;;;;;5062145;28;20060;-63
2020/12/31 10:37:20;;;;;;;4.38;2.67;;;6.40;49.30;;;;;;5065594;28;20036;-62
2020/12/31 10:39:46;;;;;;;4.57;2.70;;;6.50;48.80;;;;;;5061427;28;20052;-63
2020/12/31 10:42:11;;;;;;;4.10;2.30;;;6.40;48.10;;;;;;5062097;28;20037;-63
2020/12/31 10:44:37;;;;;;;4.25;1.88;;;6.70;49.40;;;;;;5060812;28;20181;-64
2020/12/31 10:47:02;;;;;;;3.10;2.15;;;6.80;47.30;;;;;;5062218;28;20386;-64
2020/12/31 10:49:28;;;;;;;3.92;2.10;;;7.00;47.50;;;;;;5047482;28;20062;-65
2020/12/31 10:51:53;;;;;;;2.92;2.10;;;7.10;46.10;;;;;;5062161;28;20334;-65
2020/12/31 10:54:19;;;;;;;6.20;2.97;;;7.10;47.80;;;;;;5061614;28;20045;-65
2020/12/31 10:56:44;;;;;;;3.33;2.10;;;7.40;46.90;;;;;;5060515;28;20161;-63
2020/12/31 10:59:10;;;;;;;3.60;2.10;;;7.60;48.70;;;;;;5042967;28;20045;-64
2020/12/31 11:01:35;;;;;;;3.45;2.22;;;7.60;46.20;;;;;;5061803;28;20033;-64
2020/12/31 11:04:01;;;;;;;4.45;2.40;;;7.80;45.20;;;;;;5063907;28;20032;-64
2020/12/31 11:06:27;;;;;;;4.30;2.20;;;7.80;44.00;;;;;;5061727;28;20045;-64
2020/12/31 11:08:53;;;;;;;3.85;2.20;;;7.80;45.10;;;;;;5060387;28;20043;-63
2020/12/31 11:11:23;;;;;;;3.65;2.17;;;7.90;45.40;;;;;;5060712;28;20355;-64
2020/12/31 11:13:49;;;;;;;3.25;2.13;;;8.40;47.20;;;;;;5060344;28;20256;-64
2020/12/31 11:16:15;;;;;;;4.18;2.50;;;8.40;42.90;;;;;;5064744;28;20036;-69
2020/12/31 11:18:41;;;;;;;3.58;2.25;;;8.80;43.70;;;;;;5043926;28;20078;-66
2020/12/31 11:21:07;;;;;;;5.63;2.10;;;9.30;42.60;;;;;;5060158;28;20044;-65
2020/12/31 11:23:33;;;;;;;3.30;2.60;;;9.40;40.90;;;;;;5061388;28;20096;-63
2020/12/31 11:25:58;;;;;;;3.50;2.45;;;9.90;39.90;;;;;;5060521;28;20040;-62
2020/12/31 11:28:24;;;;;;;4.70;2.70;;;10.10;39.40;;;;;;5063904;28;20040;-62
2020/12/31 11:30:50;;;;;;;4.97;2.67;;;10.30;40.10;;;;;;5061861;28;20080;-63
2020/12/31 11:33:15;;;;;;;5.35;2.60;;;10.30;38.40;;;;;;5060328;28;20044;-64
2020/12/31 11:35:41;;;;;;;5.22;2.75;;;10.20;38.80;;;;;;5060054;28;20044;-62
2020/12/31 11:38:06;;;;;;;5.57;3.00;;;10.20;39.10;;;;;;5059779;28;20042;-62
2020/12/31 11:40:32;;;;;;;4.85;2.75;;;10.10;38.80;;;;;;5063432;28;20048;-63
2020/12/31 11:42:57;;;;;;;5.32;2.80;;;10.10;40.70;;;;;;5061268;28;20244;-65
2020/12/31 11:45:23;;;;;;;4.80;3.10;;;9.40;40.50;;;;;;5060328;28;20299;-60
2020/12/31 11:47:48;;;;;;;4.28;2.72;;;9.00;42.10;;;;;;5061367;28;20064;-62
2020/12/31 11:50:14;;;;;;;6.63;3.22;;;8.70;42.60;;;;;;5059863;28;20071;-60
2020/12/31 11:52:40;;;;;;;5.50;2.97;;;8.60;42.90;;;;;;5060548;28;20327;-59
2020/12/31 11:55:06;;;;;;;6.03;3.45;;;8.40;43.30;;;;;;5064531;28;20055;-59
2020/12/31 11:57:31;;;;;;;4.45;2.97;;;8.40;43.70;;;;;;5061322;28;20232;-60
2020/12/31 11:59:57;;;;;;;5.53;3.33;;;8.10;44.50;;;;;;5061167;28;20029;-60
2020/12/31 12:02:22;;;;;;;4.28;2.90;;;8.00;44.20;;;;;;5060138;28;20036;-60
2020/12/31 12:04:48;;;;;;;4.10;2.50;;;8.30;43.60;;;;;;5060697;28;20259;-60
2020/12/31 12:07:13;;;;;;;6.00;3.17;;;8.40;43.10;;;;;;5064077;28;20025;-60
2020/12/31 12:09:39;;;;;;;5.63;3.00;;;8.70;42.70;;;;;;5060925;28;20037;-61
2020/12/31 12:12:08;;;;;;;4.75;3.03;;;8.40;42.70;;;;;;5060660;28;20228;-61
2020/12/31 12:14:34;;;;;;;4.78;2.92;;;8.50;42.80;;;;;;5060739;28;20347;-60
2020/12/31 12:17:01;;;;;;;5.95;3.00;;;8.60;43.40;;;;;;5060760;28;20044;-60
2020/12/31 12:19:26;;;;;;;5.93;2.67;;;8.60;44.10;;;;;;5063696;28;20332;-60
2020/12/31 12:21:56;;;;;;;4.57;3.33;;;8.50;43.60;;;;;;5059629;28;20044;-61
2020/12/31 12:24:21;;;;;;;4.93;2.88;;;8.40;44.20;;;;;;5059730;28;20057;-59
2020/12/31 12:26:47;;;;;;;4.85;3.40;;;8.40;46.10;;;;;;5060735;28;20044;-60
2020/12/31 12:29:12;;;;;;;4.35;2.90;;;8.40;46.40;;;;;;5060549;28;20029;-61
2020/12/31 12:31:38;;;;;;;5.65;3.20;;;8.30;44.90;;;;;;5060795;28;20064;-61
2020/12/31 12:34:04;;;;;;;5.15;3.15;;;8.20;45.20;;;;;;5063817;28;20040;-61
2020/12/31 12:36:30;;;;;;;8.23;3.30;;;8.10;44.90;;;;;;5060884;28;20044;-60
2020/12/31 12:38:55;;;;;;;5.20;3.00;;;8.00;47.20;;;;;;5059742;28;20037;-60
2020/12/31 12:41:21;;;;;;;6.43;3.00;;;7.90;45.50;;;;;;5060438;28;20036;-60
2020/12/31 12:43:46;;;;;;;5.53;3.38;;;7.90;45.80;;;;;;5060464;28;20351;-61
2020/12/31 12:46:17;;;;;;;5.88;3.20;;;7.80;45.30;;;;;;5063945;28;20025;-61
2020/12/31 12:48:42;;;;;;;6.53;3.47;;;7.70;46.40;;;;;;5041309;28;20033;-62
2020/12/31 12:51:08;;;;;;;6.85;3.25;;;7.70;46.20;;;;;;5059376;28;20347;-61
2020/12/31 12:53:33;;;;;;;5.30;2.97;;;7.60;45.80;;;;;;5060331;28;20263;-61
2020/12/31 12:55:59;;;;;;;6.72;3.40;;;7.60;46.20;;;;;;5060319;28;20379;-61
2020/12/31 12:58:25;;;;;;;6.28;3.20;;;7.70;45.60;;;;;;5063311;28;20085;-62